LGPZ/PVK METAR and TAF weather

Enter ICAO airport designator
Station Type Date Time Source
LGPZ METAR 2022/11/27 07:50 UTC NOAA

LGPZ 270750Z 09018KT 9999 FEW018 BKN080 14/04 Q1018


Station Type Date Time Source
LGPZ Decoded METAR 2022/11/27 07:50 UTC NOAA

Aktion Airport , Greece (LGPZ) 38-37N 020-46E 4M
Nov 27, 2022 - 02:50 AM EST / 2022.11.27 0750 UTC
Wind: from the E (090 degrees) at 21 MPH (18 KT):0
Visibility: greater than 7 mile(s):0
Sky conditions: mostly cloudy
Temperature: 57 F (14 C)
Dew Point: 39 F (4 C)
Relative Humidity: 50%
Pressure (altimeter): 30.06 in. Hg (1018 hPa)
ob: LGPZ 270750Z 09018KT 9999 FEW018 BKN080 14/04 Q1018
cycle: 8

Station Type Date Time Source
LGPZ TAF 2022/11/27 06:16 UTC NOAA

TAF LGPZ 270500Z 2706/2806 08015KT 9999 SCT015 BKN025 BKN070
TEMPO 2706/2715 07015G25KT

Example: see airport list